sensor_id;sensor_type;location;lat;lon;timestamp;temperature;humidity
20288;DHT22;10303;51.960;8.372;2022-07-18T00:00:16;18.60;56.30
20288;DHT22;10303;51.960;8.372;2022-07-18T00:02:42;18.60;56.40
20288;DHT22;10303;51.960;8.372;2022-07-18T00:05:08;18.60;56.50
20288;DHT22;10303;51.960;8.372;2022-07-18T00:07:34;18.50;56.50
20288;DHT22;10303;51.960;8.372;2022-07-18T00:10:00;18.50;56.70
20288;DHT22;10303;51.960;8.372;2022-07-18T00:12:26;18.40;56.70
20288;DHT22;10303;51.960;8.372;2022-07-18T00:14:53;18.40;56.90
20288;DHT22;10303;51.960;8.372;2022-07-18T00:17:19;18.30;57.60
20288;DHT22;10303;51.960;8.372;2022-07-18T00:19:45;18.30;57.10
20288;DHT22;10303;51.960;8.372;2022-07-18T00:22:11;18.30;57.20
20288;DHT22;10303;51.960;8.372;2022-07-18T00:24:36;18.20;57.30
20288;DHT22;10303;51.960;8.372;2022-07-18T00:27:05;18.20;58.00
20288;DHT22;10303;51.960;8.372;2022-07-18T00:29:33;18.20;57.50
20288;DHT22;10303;51.960;8.372;2022-07-18T00:32:05;18.10;57.60
20288;DHT22;10303;51.960;8.372;2022-07-18T00:34:32;18.10;57.90
20288;DHT22;10303;51.960;8.372;2022-07-18T00:36:59;18.10;57.90
20288;DHT22;10303;51.960;8.372;2022-07-18T00:39:25;18.00;57.90
20288;DHT22;10303;51.960;8.372;2022-07-18T00:41:51;18.00;57.90
20288;DHT22;10303;51.960;8.372;2022-07-18T00:44:19;17.90;57.70
20288;DHT22;10303;51.960;8.372;2022-07-18T00:46:51;17.90;57.80
20288;DHT22;10303;51.960;8.372;2022-07-18T00:49:19;17.80;57.90
20288;DHT22;10303;51.960;8.372;2022-07-18T00:51:46;17.80;57.90
20288;DHT22;10303;51.960;8.372;2022-07-18T00:54:12;17.80;58.00
20288;DHT22;10303;51.960;8.372;2022-07-18T00:56:38;17.80;58.10
20288;DHT22;10303;51.960;8.372;2022-07-18T00:59:05;17.70;58.30
20288;DHT22;10303;51.960;8.372;2022-07-18T01:01:31;17.70;58.30
20288;DHT22;10303;51.960;8.372;2022-07-18T01:04:17;17.70;58.50
20288;DHT22;10303;51.960;8.372;2022-07-18T01:06:45;17.60;58.70
20288;DHT22;10303;51.960;8.372;2022-07-18T01:09:12;17.60;58.60
20288;DHT22;10303;51.960;8.372;2022-07-18T01:11:40;17.60;58.70
20288;DHT22;10303;51.960;8.372;2022-07-18T01:14:07;17.60;58.80
20288;DHT22;10303;51.960;8.372;2022-07-18T01:16:34;17.50;58.90
20288;DHT22;10303;51.960;8.372;2022-07-18T01:19:00;17.50;58.90
20288;DHT22;10303;51.960;8.372;2022-07-18T01:21:26;17.50;59.00
20288;DHT22;10303;51.960;8.372;2022-07-18T01:23:52;17.40;59.00
20288;DHT22;10303;51.960;8.372;2022-07-18T01:26:19;17.40;59.20
20288;DHT22;10303;51.960;8.372;2022-07-18T01:28:45;17.40;59.20
20288;DHT22;10303;51.960;8.372;2022-07-18T01:31:12;17.30;59.20
20288;DHT22;10303;51.960;8.372;2022-07-18T01:33:38;17.30;59.40
20288;DHT22;10303;51.960;8.372;2022-07-18T01:36:06;17.30;59.50
20288;DHT22;10303;51.960;8.372;2022-07-18T01:38:33;17.30;60.30
20288;DHT22;10303;51.960;8.372;2022-07-18T01:41:00;17.20;59.60
20288;DHT22;10303;51.960;8.372;2022-07-18T01:43:27;17.20;59.60
20288;DHT22;10303;51.960;8.372;2022-07-18T01:45:54;17.20;59.80
20288;DHT22;10303;51.960;8.372;2022-07-18T01:48:20;17.10;60.50
20288;DHT22;10303;51.960;8.372;2022-07-18T01:50:48;17.10;59.80
20288;DHT22;10303;51.960;8.372;2022-07-18T01:53:15;17.10;60.00
20288;DHT22;10303;51.960;8.372;2022-07-18T01:55:41;17.00;60.80
20288;DHT22;10303;51.960;8.372;2022-07-18T01:58:07;17.00;60.20
20288;DHT22;10303;51.960;8.372;2022-07-18T02:00:33;17.00;60.30
20288;DHT22;10303;51.960;8.372;2022-07-18T02:02:59;17.00;60.30
20288;DHT22;10303;51.960;8.372;2022-07-18T02:05:25;16.90;60.40
20288;DHT22;10303;51.960;8.372;2022-07-18T02:07:51;16.90;60.40
20288;DHT22;10303;51.960;8.372;2022-07-18T02:10:19;16.90;60.30
20288;DHT22;10303;51.960;8.372;2022-07-18T02:12:46;16.80;60.60
20288;DHT22;10303;51.960;8.372;2022-07-18T02:15:13;16.80;60.60
20288;DHT22;10303;51.960;8.372;2022-07-18T02:17:40;16.80;60.70
20288;DHT22;10303;51.960;8.372;2022-07-18T02:20:10;16.80;60.80
20288;DHT22;10303;51.960;8.372;2022-07-18T02:22:37;16.70;61.00
20288;DHT22;10303;51.960;8.372;2022-07-18T02:25:04;16.70;60.90
20288;DHT22;10303;51.960;8.372;2022-07-18T02:27:32;16.70;61.20
20288;DHT22;10303;51.960;8.372;2022-07-18T02:29:58;16.60;61.10
20288;DHT22;10303;51.960;8.372;2022-07-18T02:32:24;16.60;61.30
20288;DHT22;10303;51.960;8.372;2022-07-18T02:34:50;16.60;61.40
20288;DHT22;10303;51.960;8.372;2022-07-18T02:37:17;16.60;61.50
20288;DHT22;10303;51.960;8.372;2022-07-18T02:39:43;16.50;61.50
20288;DHT22;10303;51.960;8.372;2022-07-18T02:42:10;16.50;61.60
20288;DHT22;10303;51.960;8.372;2022-07-18T02:44:36;16.50;61.90
20288;DHT22;10303;51.960;8.372;2022-07-18T02:47:03;16.40;62.00
20288;DHT22;10303;51.960;8.372;2022-07-18T02:49:29;16.40;62.10
20288;DHT22;10303;51.960;8.372;2022-07-18T02:52:00;16.40;62.30
20288;DHT22;10303;51.960;8.372;2022-07-18T02:54:32;16.30;62.50
20288;DHT22;10303;51.960;8.372;2022-07-18T02:57:00;16.30;62.60
20288;DHT22;10303;51.960;8.372;2022-07-18T02:59:27;16.30;62.50
20288;DHT22;10303;51.960;8.372;2022-07-18T03:01:54;16.30;62.80
20288;DHT22;10303;51.960;8.372;2022-07-18T03:04:22;16.20;62.80
20288;DHT22;10303;51.960;8.372;2022-07-18T03:06:49;16.20;62.80
20288;DHT22;10303;51.960;8.372;2022-07-18T03:09:15;16.20;62.80
20288;DHT22;10303;51.960;8.372;2022-07-18T03:11:42;16.20;63.10
20288;DHT22;10303;51.960;8.372;2022-07-18T03:14:08;16.20;63.20
20288;DHT22;10303;51.960;8.372;2022-07-18T03:16:35;16.10;63.30
20288;DHT22;10303;51.960;8.372;2022-07-18T03:19:01;16.10;63.50
20288;DHT22;10303;51.960;8.372;2022-07-18T03:21:28;16.10;63.70
20288;DHT22;10303;51.960;8.372;2022-07-18T03:23:55;16.10;63.70
20288;DHT22;10303;51.960;8.372;2022-07-18T03:26:21;16.00;63.90
20288;DHT22;10303;51.960;8.372;2022-07-18T03:28:47;16.00;64.00
20288;DHT22;10303;51.960;8.372;2022-07-18T03:31:13;16.00;64.10
20288;DHT22;10303;51.960;8.372;2022-07-18T03:33:40;16.00;64.20
20288;DHT22;10303;51.960;8.372;2022-07-18T03:36:06;16.00;64.40
20288;DHT22;10303;51.960;8.372;2022-07-18T03:38:32;16.00;64.50
20288;DHT22;10303;51.960;8.372;2022-07-18T03:40:58;15.90;64.60
20288;DHT22;10303;51.960;8.372;2022-07-18T03:43:24;15.90;64.70
20288;DHT22;10303;51.960;8.372;2022-07-18T03:45:49;15.90;64.90
20288;DHT22;10303;51.960;8.372;2022-07-18T03:48:15;15.90;65.00
20288;DHT22;10303;51.960;8.372;2022-07-18T03:50:41;15.90;65.20
20288;DHT22;10303;51.960;8.372;2022-07-18T03:53:07;15.90;65.30
20288;DHT22;10303;51.960;8.372;2022-07-18T03:55:33;15.90;65.30
20288;DHT22;10303;51.960;8.372;2022-07-18T03:57:59;15.80;65.30
20288;DHT22;10303;51.960;8.372;2022-07-18T04:00:25;15.80;65.50
20288;DHT22;10303;51.960;8.372;2022-07-18T04:02:51;15.80;65.70
20288;DHT22;10303;51.960;8.372;2022-07-18T04:05:17;15.80;65.70
20288;DHT22;10303;51.960;8.372;2022-07-18T04:07:43;15.80;65.70
20288;DHT22;10303;51.960;8.372;2022-07-18T04:10:10;15.80;65.80
20288;DHT22;10303;51.960;8.372;2022-07-18T04:12:48;15.80;66.10
20288;DHT22;10303;51.960;8.372;2022-07-18T04:15:20;15.80;67.00
20288;DHT22;10303;51.960;8.372;2022-07-18T04:17:48;15.80;66.30
20288;DHT22;10303;51.960;8.372;2022-07-18T04:20:15;15.80;66.20
20288;DHT22;10303;51.960;8.372;2022-07-18T04:22:47;15.80;66.60
20288;DHT22;10303;51.960;8.372;2022-07-18T04:25:26;15.80;67.20
20288;DHT22;10303;51.960;8.372;2022-07-18T04:27:55;15.90;67.00
20288;DHT22;10303;51.960;8.372;2022-07-18T04:30:25;15.80;66.90
20288;DHT22;10303;51.960;8.372;2022-07-18T04:32:53;15.90;67.30
20288;DHT22;10303;51.960;8.372;2022-07-18T04:35:20;15.90;67.10
20288;DHT22;10303;51.960;8.372;2022-07-18T04:37:48;15.90;67.10
20288;DHT22;10303;51.960;8.372;2022-07-18T04:40:15;15.90;67.20
20288;DHT22;10303;51.960;8.372;2022-07-18T04:42:42;15.90;67.40
20288;DHT22;10303;51.960;8.372;2022-07-18T04:45:08;16.00;67.60
20288;DHT22;10303;51.960;8.372;2022-07-18T04:47:35;16.00;67.80
20288;DHT22;10303;51.960;8.372;2022-07-18T04:50:01;16.00;67.90
20288;DHT22;10303;51.960;8.372;2022-07-18T04:52:38;16.10;68.10
20288;DHT22;10303;51.960;8.372;2022-07-18T04:55:08;16.10;69.00
20288;DHT22;10303;51.960;8.372;2022-07-18T04:57:34;16.10;68.30
20288;DHT22;10303;51.960;8.372;2022-07-18T05:00:06;16.20;68.30
20288;DHT22;10303;51.960;8.372;2022-07-18T05:02:38;16.20;68.70
20288;DHT22;10303;51.960;8.372;2022-07-18T05:05:05;16.30;68.60
20288;DHT22;10303;51.960;8.372;2022-07-18T05:07:31;16.30;68.90
20288;DHT22;10303;51.960;8.372;2022-07-18T05:09:57;16.30;69.00
20288;DHT22;10303;51.960;8.372;2022-07-18T05:12:22;16.40;69.20
20288;DHT22;10303;51.960;8.372;2022-07-18T05:14:49;16.40;69.30
20288;DHT22;10303;51.960;8.372;2022-07-18T05:17:16;16.50;69.40
20288;DHT22;10303;51.960;8.372;2022-07-18T05:19:42;16.50;69.40
20288;DHT22;10303;51.960;8.372;2022-07-18T05:22:08;16.50;69.60
20288;DHT22;10303;51.960;8.372;2022-07-18T05:24:34;16.60;69.80
20288;DHT22;10303;51.960;8.372;2022-07-18T05:27:00;16.60;70.00
20288;DHT22;10303;51.960;8.372;2022-07-18T05:29:26;16.70;70.00
20288;DHT22;10303;51.960;8.372;2022-07-18T05:31:52;16.70;69.90
20288;DHT22;10303;51.960;8.372;2022-07-18T05:34:18;16.80;70.00
20288;DHT22;10303;51.960;8.372;2022-07-18T05:36:43;16.80;69.90
20288;DHT22;10303;51.960;8.372;2022-07-18T05:39:09;16.90;70.10
20288;DHT22;10303;51.960;8.372;2022-07-18T05:41:35;17.00;70.00
20288;DHT22;10303;51.960;8.372;2022-07-18T05:44:01;17.00;70.00
20288;DHT22;10303;51.960;8.372;2022-07-18T05:46:27;17.10;70.20
20288;DHT22;10303;51.960;8.372;2022-07-18T05:48:53;17.20;70.30
20288;DHT22;10303;51.960;8.372;2022-07-18T05:51:20;17.30;70.40
20288;DHT22;10303;51.960;8.372;2022-07-18T05:53:47;17.40;70.40
20288;DHT22;10303;51.960;8.372;2022-07-18T05:56:13;17.50;70.40
20288;DHT22;10303;51.960;8.372;2022-07-18T05:58:40;17.60;70.30
20288;DHT22;10303;51.960;8.372;2022-07-18T06:01:06;17.70;70.30
20288;DHT22;10303;51.960;8.372;2022-07-18T06:03:32;17.80;70.10
20288;DHT22;10303;51.960;8.372;2022-07-18T06:05:58;17.90;70.10
20288;DHT22;10303;51.960;8.372;2022-07-18T06:08:24;18.00;70.20
20288;DHT22;10303;51.960;8.372;2022-07-18T06:10:50;18.20;70.50
20288;DHT22;10303;51.960;8.372;2022-07-18T06:13:16;18.30;70.40
20288;DHT22;10303;51.960;8.372;2022-07-18T06:15:42;18.40;70.30
20288;DHT22;10303;51.960;8.372;2022-07-18T06:18:07;18.50;70.30
20288;DHT22;10303;51.960;8.372;2022-07-18T06:20:33;18.60;70.30
20288;DHT22;10303;51.960;8.372;2022-07-18T06:22:59;18.70;70.20
20288;DHT22;10303;51.960;8.372;2022-07-18T06:25:25;18.90;70.20
20288;DHT22;10303;51.960;8.372;2022-07-18T06:27:51;19.00;70.30
20288;DHT22;10303;51.960;8.372;2022-07-18T06:30:17;19.10;69.90
20288;DHT22;10303;51.960;8.372;2022-07-18T06:32:43;19.20;69.60
20288;DHT22;10303;51.960;8.372;2022-07-18T06:35:09;19.30;69.30
20288;DHT22;10303;51.960;8.372;2022-07-18T06:37:35;19.40;69.20
20288;DHT22;10303;51.960;8.372;2022-07-18T06:40:02;19.50;68.90
20288;DHT22;10303;51.960;8.372;2022-07-18T06:42:29;19.70;69.00
20288;DHT22;10303;51.960;8.372;2022-07-18T06:44:55;19.80;68.90
20288;DHT22;10303;51.960;8.372;2022-07-18T06:47:21;19.90;68.60
20288;DHT22;10303;51.960;8.372;2022-07-18T06:49:48;20.00;68.30
20288;DHT22;10303;51.960;8.372;2022-07-18T06:52:14;20.20;68.20
20288;DHT22;10303;51.960;8.372;2022-07-18T06:54:41;20.30;68.00
20288;DHT22;10303;51.960;8.372;2022-07-18T06:57:07;20.40;68.00
20288;DHT22;10303;51.960;8.372;2022-07-18T06:59:35;20.50;68.00
20288;DHT22;10303;51.960;8.372;2022-07-18T07:02:02;20.60;67.70
20288;DHT22;10303;51.960;8.372;2022-07-18T07:04:29;20.80;67.60
20288;DHT22;10303;51.960;8.372;2022-07-18T07:06:54;20.90;67.50
20288;DHT22;10303;51.960;8.372;2022-07-18T07:09:20;21.00;67.20
20288;DHT22;10303;51.960;8.372;2022-07-18T07:11:47;21.10;67.40
20288;DHT22;10303;51.960;8.372;2022-07-18T07:14:13;21.20;67.50
20288;DHT22;10303;51.960;8.372;2022-07-18T07:16:39;21.30;67.30
20288;DHT22;10303;51.960;8.372;2022-07-18T07:19:05;21.40;67.60
20288;DHT22;10303;51.960;8.372;2022-07-18T07:21:31;21.60;67.10
20288;DHT22;10303;51.960;8.372;2022-07-18T07:23:57;21.70;66.60
20288;DHT22;10303;51.960;8.372;2022-07-18T07:26:23;21.80;66.50
20288;DHT22;10303;51.960;8.372;2022-07-18T07:28:49;21.90;66.10
20288;DHT22;10303;51.960;8.372;2022-07-18T07:31:15;22.00;65.90
20288;DHT22;10303;51.960;8.372;2022-07-18T07:33:41;22.20;65.80
20288;DHT22;10303;51.960;8.372;2022-07-18T07:36:10;22.30;65.60
20288;DHT22;10303;51.960;8.372;2022-07-18T07:38:36;22.40;65.50
20288;DHT22;10303;51.960;8.372;2022-07-18T07:41:02;22.50;65.30
20288;DHT22;10303;51.960;8.372;2022-07-18T07:43:28;22.70;65.50
20288;DHT22;10303;51.960;8.372;2022-07-18T07:45:54;22.90;65.50
20288;DHT22;10303;51.960;8.372;2022-07-18T07:48:22;23.00;65.30
20288;DHT22;10303;51.960;8.372;2022-07-18T07:50:48;23.20;65.20
20288;DHT22;10303;51.960;8.372;2022-07-18T07:53:16;23.40;65.20
20288;DHT22;10303;51.960;8.372;2022-07-18T07:55:42;23.60;65.10
20288;DHT22;10303;51.960;8.372;2022-07-18T07:58:08;23.80;64.90
20288;DHT22;10303;51.960;8.372;2022-07-18T08:00:35;24.00;64.70
20288;DHT22;10303;51.960;8.372;2022-07-18T08:03:03;24.20;64.70
20288;DHT22;10303;51.960;8.372;2022-07-18T08:05:34;24.40;64.60
20288;DHT22;10303;51.960;8.372;2022-07-18T08:08:03;24.60;63.40
20288;DHT22;10303;51.960;8.372;2022-07-18T08:10:30;24.90;63.40
20288;DHT22;10303;51.960;8.372;2022-07-18T08:12:57;25.10;63.20
20288;DHT22;10303;51.960;8.372;2022-07-18T08:15:24;25.30;63.20
20288;DHT22;10303;51.960;8.372;2022-07-18T08:17:50;25.60;61.90
20288;DHT22;10303;51.960;8.372;2022-07-18T08:20:16;25.80;62.10
20288;DHT22;10303;51.960;8.372;2022-07-18T08:22:59;26.10;61.90
20288;DHT22;10303;51.960;8.372;2022-07-18T08:25:31;26.30;59.90
20288;DHT22;10303;51.960;8.372;2022-07-18T08:27:59;26.60;60.80
20288;DHT22;10303;51.960;8.372;2022-07-18T08:30:27;26.80;60.60
20288;DHT22;10303;51.960;8.372;2022-07-18T08:32:53;27.00;60.10
20288;DHT22;10303;51.960;8.372;2022-07-18T08:35:19;27.20;60.10
20288;DHT22;10303;51.960;8.372;2022-07-18T08:37:46;27.50;59.10
20288;DHT22;10303;51.960;8.372;2022-07-18T08:40:13;27.70;57.50
20288;DHT22;10303;51.960;8.372;2022-07-18T08:42:39;27.90;57.10
20288;DHT22;10303;51.960;8.372;2022-07-18T08:45:06;28.20;57.60
20288;DHT22;10303;51.960;8.372;2022-07-18T08:47:33;28.40;57.20
20288;DHT22;10303;51.960;8.372;2022-07-18T08:50:00;28.60;57.70
20288;DHT22;10303;51.960;8.372;2022-07-18T08:52:28;28.90;57.00
20288;DHT22;10303;51.960;8.372;2022-07-18T08:54:56;29.10;56.00
20288;DHT22;10303;51.960;8.372;2022-07-18T08:57:22;29.30;53.20
20288;DHT22;10303;51.960;8.372;2022-07-18T08:59:49;29.40;52.20
20288;DHT22;10303;51.960;8.372;2022-07-18T09:02:15;29.60;51.30
20288;DHT22;10303;51.960;8.372;2022-07-18T09:04:42;29.80;52.40
20288;DHT22;10303;51.960;8.372;2022-07-18T09:07:22;29.90;51.80
20288;DHT22;10303;51.960;8.372;2022-07-18T09:09:59;30.20;52.90
20288;DHT22;10303;51.960;8.372;2022-07-18T09:12:30;30.40;52.80
20288;DHT22;10303;51.960;8.372;2022-07-18T09:14:57;30.60;52.20
20288;DHT22;10303;51.960;8.372;2022-07-18T09:17:33;30.90;52.10
20288;DHT22;10303;51.960;8.372;2022-07-18T09:20:03;31.10;52.30
20288;DHT22;10303;51.960;8.372;2022-07-18T09:22:37;31.30;52.40
20288;DHT22;10303;51.960;8.372;2022-07-18T09:25:11;31.50;52.40
20288;DHT22;10303;51.960;8.372;2022-07-18T09:27:41;31.70;50.80
20288;DHT22;10303;51.960;8.372;2022-07-18T09:32:55;32.30;49.10
20288;DHT22;10303;51.960;8.372;2022-07-18T09:35:51;32.50;50.00
20288;DHT22;10303;51.960;8.372;2022-07-18T09:38:27;32.70;46.30
20288;DHT22;10303;51.960;8.372;2022-07-18T09:40:55;32.90;48.70
20288;DHT22;10303;51.960;8.372;2022-07-18T09:43:24;33.10;48.60
20288;DHT22;10303;51.960;8.372;2022-07-18T09:45:54;33.30;48.20
20288;DHT22;10303;51.960;8.372;2022-07-18T09:48:23;33.50;47.90
20288;DHT22;10303;51.960;8.372;2022-07-18T09:50:59;33.70;48.20
20288;DHT22;10303;51.960;8.372;2022-07-18T09:53:32;33.90;47.20
20288;DHT22;10303;51.960;8.372;2022-07-18T09:56:03;34.10;47.80
20288;DHT22;10303;51.960;8.372;2022-07-18T09:58:32;34.30;47.20
20288;DHT22;10303;51.960;8.372;2022-07-18T10:01:18;34.50;46.00
20288;DHT22;10303;51.960;8.372;2022-07-18T10:03:45;34.70;46.20
20288;DHT22;10303;51.960;8.372;2022-07-18T10:06:12;34.90;46.00
20288;DHT22;10303;51.960;8.372;2022-07-18T10:08:38;35.10;45.00
20288;DHT22;10303;51.960;8.372;2022-07-18T10:11:05;35.20;45.30
20288;DHT22;10303;51.960;8.372;2022-07-18T10:13:33;35.30;44.60
20288;DHT22;10303;51.960;8.372;2022-07-18T10:16:00;35.50;44.10
20288;DHT22;10303;51.960;8.372;2022-07-18T10:18:29;35.70;42.70
20288;DHT22;10303;51.960;8.372;2022-07-18T10:26:22;36.10;43.30
20288;DHT22;10303;51.960;8.372;2022-07-18T10:29:15;36.30;42.30
20288;DHT22;10303;51.960;8.372;2022-07-18T10:32:00;36.50;37.80
20288;DHT22;10303;51.960;8.372;2022-07-18T10:34:34;36.70;39.40
20288;DHT22;10303;51.960;8.372;2022-07-18T10:39:44;37.20;40.30
20288;DHT22;10303;51.960;8.372;2022-07-18T10:42:18;37.40;39.80
20288;DHT22;10303;51.960;8.372;2022-07-18T10:44:46;37.50;39.00
20288;DHT22;10303;51.960;8.372;2022-07-18T10:47:18;37.70;39.80
20288;DHT22;10303;51.960;8.372;2022-07-18T11:00:37;38.80;38.20
20288;DHT22;10303;51.960;8.372;2022-07-18T11:03:06;39.00;37.40
20288;DHT22;10303;51.960;8.372;2022-07-18T11:05:52;39.30;38.00
20288;DHT22;10303;51.960;8.372;2022-07-18T11:08:20;39.40;38.20
20288;DHT22;10303;51.960;8.372;2022-07-18T11:16:17;39.90;36.20
20288;DHT22;10303;51.960;8.372;2022-07-18T11:23:43;40.30;35.70
20288;DHT22;10303;51.960;8.372;2022-07-18T11:26:16;40.40;35.50
20288;DHT22;10303;51.960;8.372;2022-07-18T11:28:43;40.40;34.70
20288;DHT22;10303;51.960;8.372;2022-07-18T11:31:12;40.50;33.80
20288;DHT22;10303;51.960;8.372;2022-07-18T11:33:41;40.50;34.30
20288;DHT22;10303;51.960;8.372;2022-07-18T11:36:16;40.70;34.20
20288;DHT22;10303;51.960;8.372;2022-07-18T11:38:55;40.70;33.70
20288;DHT22;10303;51.960;8.372;2022-07-18T11:41:26;40.70;31.80
20288;DHT22;10303;51.960;8.372;2022-07-18T11:43:54;40.80;32.80
20288;DHT22;10303;51.960;8.372;2022-07-18T11:46:24;40.80;32.70
20288;DHT22;10303;51.960;8.372;2022-07-18T11:49:02;40.80;32.10
20288;DHT22;10303;51.960;8.372;2022-07-18T11:51:35;40.80;32.50
20288;DHT22;10303;51.960;8.372;2022-07-18T11:54:09;40.80;32.90
20288;DHT22;10303;51.960;8.372;2022-07-18T11:56:47;41.00;33.00
20288;DHT22;10303;51.960;8.372;2022-07-18T11:59:16;41.10;32.10
20288;DHT22;10303;51.960;8.372;2022-07-18T12:01:44;41.20;32.20
20288;DHT22;10303;51.960;8.372;2022-07-18T12:04:21;41.30;30.90
20288;DHT22;10303;51.960;8.372;2022-07-18T12:09:41;41.40;30.50
20288;DHT22;10303;51.960;8.372;2022-07-18T12:12:11;41.40;31.10
20288;DHT22;10303;51.960;8.372;2022-07-18T12:14:39;41.40;31.00
20288;DHT22;10303;51.960;8.372;2022-07-18T12:17:06;41.50;31.40
20288;DHT22;10303;51.960;8.372;2022-07-18T12:19:41;41.50;30.70
20288;DHT22;10303;51.960;8.372;2022-07-18T12:22:11;41.60;30.80
20288;DHT22;10303;51.960;8.372;2022-07-18T12:24:51;41.60;30.80
20288;DHT22;10303;51.960;8.372;2022-07-18T12:27:23;41.80;30.50
20288;DHT22;10303;51.960;8.372;2022-07-18T12:30:06;41.90;30.90
20288;DHT22;10303;51.960;8.372;2022-07-18T12:35:30;42.00;29.80
20288;DHT22;10303;51.960;8.372;2022-07-18T12:40:54;42.10;29.60
20288;DHT22;10303;51.960;8.372;2022-07-18T12:43:31;42.10;29.70
20288;DHT22;10303;51.960;8.372;2022-07-18T12:46:01;42.20;30.40
20288;DHT22;10303;51.960;8.372;2022-07-18T12:48:30;42.30;30.00
20288;DHT22;10303;51.960;8.372;2022-07-18T12:51:02;42.30;30.00
20288;DHT22;10303;51.960;8.372;2022-07-18T12:53:37;42.40;29.80
20288;DHT22;10303;51.960;8.372;2022-07-18T12:56:04;42.50;29.70
20288;DHT22;10303;51.960;8.372;2022-07-18T12:58:30;42.50;29.60
20288;DHT22;10303;51.960;8.372;2022-07-18T13:00:57;42.60;29.50
20288;DHT22;10303;51.960;8.372;2022-07-18T13:03:23;42.60;29.40
20288;DHT22;10303;51.960;8.372;2022-07-18T13:05:49;42.60;28.70
20288;DHT22;10303;51.960;8.372;2022-07-18T13:08:15;42.60;28.80
20288;DHT22;10303;51.960;8.372;2022-07-18T13:10:43;42.60;28.90
20288;DHT22;10303;51.960;8.372;2022-07-18T13:13:10;42.50;28.70
20288;DHT22;10303;51.960;8.372;2022-07-18T13:15:36;42.40;28.40
20288;DHT22;10303;51.960;8.372;2022-07-18T13:18:04;42.30;29.00
20288;DHT22;10303;51.960;8.372;2022-07-18T13:20:32;42.30;28.70
20288;DHT22;10303;51.960;8.372;2022-07-18T13:22:58;42.40;28.90
20288;DHT22;10303;51.960;8.372;2022-07-18T13:25:27;42.40;28.40
20288;DHT22;10303;51.960;8.372;2022-07-18T13:27:53;42.30;28.40
20288;DHT22;10303;51.960;8.372;2022-07-18T13:30:19;42.10;27.40
20288;DHT22;10303;51.960;8.372;2022-07-18T13:32:45;42.00;28.50
20288;DHT22;10303;51.960;8.372;2022-07-18T13:35:13;41.90;28.60
20288;DHT22;10303;51.960;8.372;2022-07-18T13:37:39;41.90;27.90
20288;DHT22;10303;51.960;8.372;2022-07-18T13:40:06;41.80;28.60
20288;DHT22;10303;51.960;8.372;2022-07-18T13:42:33;41.80;28.00
20288;DHT22;10303;51.960;8.372;2022-07-18T13:45:00;41.70;28.40
20288;DHT22;10303;51.960;8.372;2022-07-18T13:47:26;41.60;28.70
20288;DHT22;10303;51.960;8.372;2022-07-18T13:49:52;41.70;29.10
20288;DHT22;10303;51.960;8.372;2022-07-18T13:52:18;41.70;28.00
20288;DHT22;10303;51.960;8.372;2022-07-18T13:54:44;41.60;28.60
20288;DHT22;10303;51.960;8.372;2022-07-18T13:57:11;41.60;28.70
20288;DHT22;10303;51.960;8.372;2022-07-18T13:59:37;41.60;28.50
20288;DHT22;10303;51.960;8.372;2022-07-18T14:02:03;41.60;28.70
20288;DHT22;10303;51.960;8.372;2022-07-18T14:04:29;41.60;28.70
20288;DHT22;10303;51.960;8.372;2022-07-18T14:06:55;41.60;28.30
20288;DHT22;10303;51.960;8.372;2022-07-18T14:09:21;41.60;28.40
20288;DHT22;10303;51.960;8.372;2022-07-18T14:11:47;41.60;28.60
20288;DHT22;10303;51.960;8.372;2022-07-18T14:14:17;41.50;28.20
20288;DHT22;10303;51.960;8.372;2022-07-18T14:16:43;41.40;28.10
20288;DHT22;10303;51.960;8.372;2022-07-18T14:19:08;41.40;28.10
20288;DHT22;10303;51.960;8.372;2022-07-18T14:21:34;41.30;28.40
20288;DHT22;10303;51.960;8.372;2022-07-18T14:24:00;41.30;28.90
20288;DHT22;10303;51.960;8.372;2022-07-18T14:26:26;41.20;28.70
20288;DHT22;10303;51.960;8.372;2022-07-18T14:28:53;41.20;29.00
20288;DHT22;10303;51.960;8.372;2022-07-18T14:31:19;41.00;29.20
20288;DHT22;10303;51.960;8.372;2022-07-18T14:33:45;40.90;29.20
20288;DHT22;10303;51.960;8.372;2022-07-18T14:36:11;40.80;28.80
20288;DHT22;10303;51.960;8.372;2022-07-18T14:38:37;40.70;29.20
20288;DHT22;10303;51.960;8.372;2022-07-18T14:41:03;40.60;28.90
20288;DHT22;10303;51.960;8.372;2022-07-18T14:43:29;40.40;28.80
20288;DHT22;10303;51.960;8.372;2022-07-18T14:45:55;40.30;29.20
20288;DHT22;10303;51.960;8.372;2022-07-18T14:48:22;40.20;29.20
20288;DHT22;10303;51.960;8.372;2022-07-18T14:50:48;40.10;29.30
20288;DHT22;10303;51.960;8.372;2022-07-18T14:53:14;40.10;29.50
20288;DHT22;10303;51.960;8.372;2022-07-18T14:55:40;40.00;29.40
20288;DHT22;10303;51.960;8.372;2022-07-18T14:58:06;39.90;29.40
20288;DHT22;10303;51.960;8.372;2022-07-18T15:00:32;39.80;29.20
20288;DHT22;10303;51.960;8.372;2022-07-18T15:02:58;39.80;28.90
20288;DHT22;10303;51.960;8.372;2022-07-18T15:05:24;39.70;29.00
20288;DHT22;10303;51.960;8.372;2022-07-18T15:07:50;39.60;28.70
20288;DHT22;10303;51.960;8.372;2022-07-18T15:10:16;39.50;29.20
20288;DHT22;10303;51.960;8.372;2022-07-18T15:12:42;39.40;28.90
20288;DHT22;10303;51.960;8.372;2022-07-18T15:15:08;39.30;29.20
20288;DHT22;10303;51.960;8.372;2022-07-18T15:17:35;39.20;29.40
20288;DHT22;10303;51.960;8.372;2022-07-18T15:20:01;39.20;29.80
20288;DHT22;10303;51.960;8.372;2022-07-18T15:22:28;39.10;29.60
20288;DHT22;10303;51.960;8.372;2022-07-18T15:24:55;39.00;29.70
20288;DHT22;10303;51.960;8.372;2022-07-18T15:27:21;39.00;29.70
20288;DHT22;10303;51.960;8.372;2022-07-18T15:29:47;38.90;30.00
20288;DHT22;10303;51.960;8.372;2022-07-18T15:32:13;38.80;29.60
20288;DHT22;10303;51.960;8.372;2022-07-18T15:34:39;38.70;29.70
20288;DHT22;10303;51.960;8.372;2022-07-18T15:37:06;38.50;30.00
20288;DHT22;10303;51.960;8.372;2022-07-18T15:39:32;38.40;30.00
20288;DHT22;10303;51.960;8.372;2022-07-18T15:41:58;38.30;30.00
20288;DHT22;10303;51.960;8.372;2022-07-18T15:44:25;38.10;30.00
20288;DHT22;10303;51.960;8.372;2022-07-18T15:46:52;38.10;30.40
20288;DHT22;10303;51.960;8.372;2022-07-18T15:49:19;38.10;30.20
20288;DHT22;10303;51.960;8.372;2022-07-18T15:51:45;38.00;30.50
20288;DHT22;10303;51.960;8.372;2022-07-18T15:54:15;38.00;30.20
20288;DHT22;10303;51.960;8.372;2022-07-18T15:56:42;37.90;30.10
20288;DHT22;10303;51.960;8.372;2022-07-18T15:59:09;37.80;30.50
20288;DHT22;10303;51.960;8.372;2022-07-18T16:01:35;37.70;30.90
20288;DHT22;10303;51.960;8.372;2022-07-18T16:04:02;37.60;31.20
20288;DHT22;10303;51.960;8.372;2022-07-18T16:06:28;37.60;30.90
20288;DHT22;10303;51.960;8.372;2022-07-18T16:08:54;37.40;30.30
20288;DHT22;10303;51.960;8.372;2022-07-18T16:11:20;37.30;30.20
20288;DHT22;10303;51.960;8.372;2022-07-18T16:13:46;37.30;30.70